Aviation Digital Data Service (ADDS)

Output produced by METARs form (0611 UTC 25 June 2018)
found at http://www.aviationweather.gov/adds/metars/
 
SYCJ 250600Z 10004KT 050V170 8000 -SHRA BKN011 SCT037 24/23 Q1013 NOSIG
TAF SYCJ 241020Z 2412/2512 VRB06KT 7000 SHRA RA FEW014CB BKN016 BKN034 
     BECMG 2419/2421 9999 BKN016 BKN034 
     BECMG 2503/2507 2000 +SHRA RA FEW012CB BKN014 OVC032